aviador You're here:

PAWD Decoded Metar

SEWARD in AK, USA
Report Time2018-02-19 11:53:00
UTC Time2018-02-19 12:08:03
Flight Rules vfr VFR
Wind010° at 12 Gusting to 19 kt
W.Decomp.*RWY 34: 11.8 kt HW 2.3 kt RCW
RWY 31: 9.1 kt HW 7.9 kt RCW
W.Rank010° ranks 1
Current wind is above 010° avg. (10.0)
Visibility9999 m
Phenomena:N/A
Clouds:N/A
Expected CloudBase > 2,000 ft AGL from Temp-Dew spread
CeilingNone
Temp01°C (ISA -14)
Dew Point-4°C (70% RH)
AAT-5.8°C
QNH1029 hPa
Density Alt-2,093 ft
Elevation75 ft
Report Wrong Elevation
Raw Report
PAWD 191153Z AUTO 01012G19KT 330V030 10SM CLR 01/M04 A3039 RMK AO2
SLP290 7//// T00061039 10022 20006 53006 TSNO $=

Extra information for PAWD:More info

Metar Taf Metar & Taf Last 4 Metars F.Rules Stats Wind Profile Meteogram Temp Stats Airport Information Weather charts Add Link Nearby VenuesMetar ALERT Operation Metar Decoded Social comments

AIRNAV info for PAWD